Antrim, NH

1:48 PM EST on March 03, 2015 (GMT -0500)
Clark Farm | Change Station
CLOSE
Current Station
Personal Weather Station
Location: Hancock, NH
Elevation: 1299 ft
Nearby Weather Stations
Active Advisory: Winter Weather Advisory

Elev 1299 ft 43.00 °N, 72.02 °W | Updated 10 minutes ago

Clear
Clear
26.8 °F
Feels Like 27 °F
N
0.0
Wind Variable Wind from ESE
Gusts 7.0 mph

Today
High -- | Low -- °F
--% Chance of Precip.
Yesterday
High -- | Low -- °F
Precip. -- in
6:20 AM 5:39 PM
Waxing Gibbous, 97% visible
Pressure 30.32 in
Visibility 10.0 miles
Clouds Clear
Windchill 27 °F
Dew Point 5 °F
Humidity 39%
Rainfall 0.00 in
Snow Depth Not available.
UV 5 out of 12
Pollen .30 out of 12
Air Quality Not available.
Flu Activity Not available.
METAR KAFN 031752Z AUTO 17007KT 10SM CLR M04/M17 A3025 RMK AO2 SLP267 T10391172 11039 21156 58020

More Conditions Fewer Conditions

Pressure 30.32 in
Visibility 10.0 miles
Clouds Clear
Windchill 27 °F
Dew Point 5 °F
Humidity 39%
Rainfall 0.00 in
Snow Depth Not available.
UV 5 out of 12
Pollen .30 out of 12
Air Quality Not available.
Flu Activity Not available.
METAR KAFN 031752Z AUTO 17007KT 10SM CLR M04/M17 A3025 RMK AO2 SLP267 T10391172 11039 21156 58020

More Conditions Fewer Conditions

10-Day Weather Forecast

Almanac

Astronomy

Mar. 03, 2015 Rise Set
Actual Time
Civil Twilight
Nautical Twilight
Astronomical Twilight
Moon
Length of Visible Light
Length of Day
Tomorrow will be .
, % of the Moon is Illuminated

Today's Extremes

State Highs State Lows

Community

WunderPhotos

Upload Photos

1,802,198 photos uploaded!

WunderBlogs® & News

Nearby

Air Quality

  Air Quality AQ Index Pollutant
Not available.

Snow Depth

Station Depth Elevation

Earthquake Activity

City Distance Mag. Time & Date
Minimum magnitude displayed is 2.5.

Coastal Water Temperatures

Place Temperature

Nearby Weather Stations

Winter Weather Advisory
Statement as of 11:01 AM EST on March 03, 2015

... Winter Weather Advisory remains in effect from 4 PM this
afternoon to 7 am EST Wednesday...

* hazard types... snow and freezing rain.

* Accumulations... snow accumulation of 3 to 5 inches.

* Timing... snow begins late this afternoon and continues into the
pre-dawn hours before ending by sunrise. Precipitation could
briefly mix with or change to freezing rain as it ends after
midnight.

* Impacts... Road will become snow covered and slippery.

* Winds... south 5 to 10 mph.

* Temperatures... in the upper 20s.

Precautionary/preparedness actions...

A Winter Weather Advisory means that periods of snow... sleet... or
freezing rain will cause travel difficulties. Be prepared for
slippery roads and limited visibilities... and use caution while
driving.